Time;durP1;ratioP1;P1;durP2;ratioP2;P2;SDS_P1;SDS_P2;PMS_P1;PMS_P2;Temp;Humidity;BMP_temperature;BMP_pressure;BME280_temperature;BME280_humidity;BME280_pressure;Samples;Min_cycle;Max_cycle;Signal;HPM_P1;HPM_P2
2021/05/09 00:02:14;;;;;;;9.15;6.38;;;14.90;59.70;;;;;;5030250;28;20087;-61
2021/05/09 00:04:40;;;;;;;7.68;5.65;;;14.90;60.10;;;;;;5016731;28;20029;-60
2021/05/09 00:07:06;;;;;;;6.95;5.53;;;14.90;60.00;;;;;;5027644;28;20045;-58
2021/05/09 00:09:32;;;;;;;6.97;5.47;;;14.80;60.70;;;;;;5011614;28;20037;-63
2021/05/09 00:11:57;;;;;;;7.72;4.75;;;14.80;60.30;;;;;;5028006;28;20057;-61
2021/05/09 00:14:24;;;;;;;5.47;4.80;;;14.80;59.90;;;;;;5012815;28;20050;-58
2021/05/09 00:16:50;;;;;;;8.93;5.97;;;14.80;59.80;;;;;;5035064;28;20068;-60
2021/05/09 00:19:15;;;;;;;11.25;6.78;;;14.80;59.50;;;;;;5037597;28;20084;-58
2021/05/09 00:21:41;;;;;;;6.78;5.00;;;14.80;59.50;;;;;;5025553;28;20041;-58
2021/05/09 00:24:07;;;;;;;6.05;5.20;;;14.60;59.40;;;;;;5028980;28;20079;-60
2021/05/09 00:26:34;;;;;;;5.50;4.60;;;14.60;59.50;;;;;;5024747;28;20176;-59
2021/05/09 00:29:00;;;;;;;5.07;4.18;;;14.60;59.70;;;;;;5015973;28;20111;-60
2021/05/09 00:31:25;;;;;;;9.00;4.63;;;14.60;59.70;;;;;;5030595;28;20492;-60
2021/05/09 00:33:51;;;;;;;5.00;4.30;;;14.60;59.70;;;;;;5027119;28;20033;-59
2021/05/09 00:36:16;;;;;;;4.90;4.40;;;14.60;59.60;;;;;;5024049;28;20124;-62
2021/05/09 00:38:42;;;;;;;7.00;5.60;;;14.50;59.60;;;;;;5048274;28;20045;-58
2021/05/09 00:41:07;;;;;;;5.63;4.57;;;14.50;59.60;;;;;;5018917;28;20489;-61
2021/05/09 00:43:33;;;;;;;4.97;4.30;;;14.60;59.80;;;;;;5017802;28;20041;-60
2021/05/09 00:45:59;;;;;;;5.20;4.15;;;14.60;59.70;;;;;;5018139;28;20033;-60
2021/05/09 00:48:24;;;;;;;7.00;4.40;;;14.50;59.90;;;;;;5021544;28;20038;-58
2021/05/09 00:50:50;;;;;;;4.43;4.03;;;14.40;60.20;;;;;;5024570;28;20029;-58
2021/05/09 00:53:22;;;;;;;6.32;4.70;;;14.40;60.40;;;;;;5026702;28;20125;-60
2021/05/09 00:55:48;;;;;;;5.13;4.07;;;14.40;60.50;;;;;;5015778;28;20042;-59
2021/05/09 00:58:16;;;;;;;5.18;4.68;;;14.40;60.60;;;;;;5034559;28;20055;-57
2021/05/09 01:00:42;;;;;;;5.38;4.47;;;14.40;60.60;;;;;;5016071;28;20030;-58
2021/05/09 01:03:09;;;;;;;5.47;4.35;;;14.40;60.90;;;;;;5026644;28;20037;-59
2021/05/09 01:05:35;;;;;;;6.53;4.53;;;14.30;61.00;;;;;;5015369;28;20553;-60
2021/05/09 01:08:03;;;;;;;6.50;5.25;;;14.30;61.20;;;;;;5052883;28;20080;-60
2021/05/09 01:10:28;;;;;;;7.82;5.38;;;14.30;61.30;;;;;;5021118;28;20136;-58
2021/05/09 01:12:55;;;;;;;7.97;5.18;;;14.20;61.70;;;;;;5021722;28;20105;-58
2021/05/09 01:15:22;;;;;;;9.88;5.43;;;14.20;61.70;;;;;;5015565;28;20045;-59
2021/05/09 01:17:47;;;;;;;10.02;5.50;;;14.20;61.70;;;;;;5028251;28;20401;-59
2021/05/09 01:20:13;;;;;;;8.80;5.80;;;14.20;61.80;;;;;;5020085;28;20124;-59
2021/05/09 01:22:39;;;;;;;9.75;5.93;;;14.20;61.80;;;;;;5040315;28;20069;-58
2021/05/09 01:25:06;;;;;;;9.15;5.45;;;14.20;61.80;;;;;;5038559;28;20057;-60
2021/05/09 01:27:32;;;;;;;9.38;6.32;;;14.20;61.90;;;;;;5042484;28;20037;-57
2021/05/09 01:29:57;;;;;;;7.45;5.65;;;14.20;62.00;;;;;;5021362;28;20045;-59
2021/05/09 01:32:23;;;;;;;9.50;5.22;;;14.20;61.90;;;;;;5036136;28;20036;-58
2021/05/09 01:34:49;;;;;;;9.25;5.75;;;14.10;62.00;;;;;;5018507;28;20092;-60
2021/05/09 01:37:15;;;;;;;7.53;5.03;;;14.10;62.40;;;;;;5027034;28;20066;-58
2021/05/09 01:39:40;;;;;;;9.02;5.65;;;14.10;62.50;;;;;;5023613;28;20434;-58
2021/05/09 01:42:06;;;;;;;7.78;5.50;;;14.10;62.90;;;;;;5023106;28;20497;-60
2021/05/09 01:44:31;;;;;;;8.68;5.30;;;14.00;62.90;;;;;;5029481;28;20101;-59
2021/05/09 01:46:57;;;;;;;9.95;5.43;;;14.00;62.90;;;;;;5019373;28;20063;-60
2021/05/09 01:49:23;;;;;;;8.27;5.28;;;14.00;62.80;;;;;;5032170;28;20065;-63
2021/05/09 01:51:49;;;;;;;9.10;5.63;;;13.90;63.00;;;;;;5015485;28;20065;-57
2021/05/09 01:54:15;;;;;;;8.75;5.90;;;13.90;63.70;;;;;;5037566;28;20029;-58
2021/05/09 01:56:40;;;;;;;11.27;6.07;;;14.00;63.10;;;;;;5014121;28;20390;-60
2021/05/09 01:59:08;;;;;;;8.15;5.43;;;13.90;63.20;;;;;;5029857;28;20405;-56
2021/05/09 02:01:34;;;;;;;8.75;5.47;;;13.90;63.40;;;;;;5014201;28;20563;-60
2021/05/09 02:04:00;;;;;;;10.63;6.50;;;13.80;63.70;;;;;;5041356;28;20038;-55
2021/05/09 02:06:25;;;;;;;10.30;5.82;;;13.70;64.00;;;;;;5014075;28;20038;-60
2021/05/09 02:08:51;;;;;;;11.45;6.30;;;13.70;64.00;;;;;;5028211;28;20038;-56
2021/05/09 02:11:17;;;;;;;10.88;6.53;;;13.70;64.00;;;;;;5016777;28;20546;-60
2021/05/09 02:13:43;;;;;;;9.10;5.80;;;13.70;64.00;;;;;;5029569;28;20046;-59
2021/05/09 02:16:09;;;;;;;10.02;6.30;;;13.60;64.30;;;;;;5046697;28;20075;-60
2021/05/09 02:18:34;;;;;;;14.05;6.45;;;13.60;65.00;;;;;;5049751;28;20040;-58
2021/05/09 02:21:00;;;;;;;10.40;6.50;;;13.50;65.30;;;;;;5019464;28;20527;-59
2021/05/09 02:23:25;;;;;;;10.48;6.03;;;13.50;65.40;;;;;;5037165;28;20029;-60
2021/05/09 02:25:51;;;;;;;10.18;6.53;;;13.40;65.90;;;;;;5021134;28;20034;-60
2021/05/09 02:28:16;;;;;;;15.05;7.53;;;13.20;66.30;;;;;;5021747;28;20070;-58
2021/05/09 02:30:42;;;;;;;11.77;6.72;;;13.30;66.30;;;;;;5048897;28;20030;-60
2021/05/09 02:33:12;;;;;;;13.15;7.40;;;13.30;66.00;;;;;;5034694;28;20024;-59
2021/05/09 02:35:38;;;;;;;14.43;7.88;;;13.40;65.70;;;;;;5013666;28;20036;-58
2021/05/09 02:38:04;;;;;;;12.38;7.40;;;13.40;65.70;;;;;;5031930;28;20029;-59
2021/05/09 02:40:29;;;;;;;13.30;6.88;;;13.40;65.90;;;;;;5026636;28;20045;-60
2021/05/09 02:42:55;;;;;;;11.00;6.32;;;13.40;65.70;;;;;;5021951;28;20041;-58
2021/05/09 02:45:20;;;;;;;11.50;6.80;;;13.40;65.50;;;;;;5016950;28;20207;-57
2021/05/09 02:47:46;;;;;;;6.35;5.13;;;13.40;65.50;;;;;;5019675;28;20037;-59
2021/05/09 02:50:12;;;;;;;8.50;5.32;;;13.40;65.10;;;;;;5018990;28;20113;-60
2021/05/09 02:52:37;;;;;;;7.50;5.30;;;13.40;65.30;;;;;;5021657;28;20037;-58
2021/05/09 02:55:04;;;;;;;9.48;5.43;;;13.50;65.40;;;;;;5027661;28;20567;-57
2021/05/09 02:57:30;;;;;;;9.05;6.22;;;13.60;65.30;;;;;;5016667;28;20029;-59
2021/05/09 02:59:55;;;;;;;7.05;5.13;;;13.60;65.50;;;;;;5031926;28;20095;-59
2021/05/09 03:02:21;;;;;;;6.40;4.65;;;13.60;65.40;;;;;;5014259;28;20083;-60
2021/05/09 03:04:47;;;;;;;4.55;3.90;;;13.70;65.40;;;;;;5036647;28;20057;-60
2021/05/09 03:07:12;;;;;;;5.03;4.00;;;13.70;65.10;;;;;;5013648;28;20516;-56
2021/05/09 03:09:38;;;;;;;7.43;4.28;;;13.70;64.70;;;;;;5037525;28;20153;-58
2021/05/09 03:12:04;;;;;;;5.82;3.70;;;13.60;64.80;;;;;;5013248;28;20076;-59
2021/05/09 03:14:30;;;;;;;5.50;4.22;;;13.60;64.90;;;;;;5057582;28;20050;-58
2021/05/09 03:16:56;;;;;;;4.50;4.00;;;13.60;64.90;;;;;;5013145;28;20033;-59
2021/05/09 03:19:21;;;;;;;5.53;4.57;;;13.60;65.00;;;;;;5026857;28;20497;-61
2021/05/09 03:21:47;;;;;;;5.60;4.15;;;13.60;65.10;;;;;;5012759;28;20113;-60
2021/05/09 03:24:13;;;;;;;5.55;4.13;;;13.60;65.20;;;;;;5026905;28;20052;-60
2021/05/09 03:26:39;;;;;;;4.40;3.97;;;13.60;65.40;;;;;;5013128;28;20045;-59
2021/05/09 03:29:06;;;;;;;7.00;4.85;;;13.60;65.20;;;;;;5014294;28;20033;-60
2021/05/09 03:31:32;;;;;;;5.10;3.88;;;13.50;65.30;;;;;;5024272;28;20041;-61
2021/05/09 03:33:58;;;;;;;4.45;3.90;;;13.60;65.50;;;;;;5023814;28;20074;-58
2021/05/09 03:36:24;;;;;;;7.97;4.25;;;13.50;65.50;;;;;;5014521;28;20406;-58
2021/05/09 03:38:50;;;;;;;7.72;4.55;;;13.50;65.50;;;;;;5023263;28;20038;-56
2021/05/09 03:41:16;;;;;;;4.75;4.28;;;13.50;65.80;;;;;;5012839;28;20458;-58
2021/05/09 03:43:42;;;;;;;4.18;3.72;;;13.60;65.80;;;;;;5016139;28;20065;-58
2021/05/09 03:46:10;;;;;;;5.07;3.80;;;13.60;65.70;;;;;;5012410;28;20057;-60
2021/05/09 03:48:36;;;;;;;4.88;3.88;;;13.70;65.90;;;;;;5016070;28;20045;-57
2021/05/09 03:51:02;;;;;;;5.65;4.05;;;13.60;66.10;;;;;;5012202;28;20038;-58
2021/05/09 03:53:29;;;;;;;5.90;4.03;;;13.70;66.80;;;;;;5014213;28;20050;-57
2021/05/09 03:55:55;;;;;;;4.70;4.20;;;13.60;66.90;;;;;;5012506;28;20057;-61
2021/05/09 03:58:21;;;;;;;6.20;4.70;;;13.70;66.30;;;;;;5023293;28;20548;-60
2021/05/09 04:00:46;;;;;;;7.50;4.60;;;13.60;66.40;;;;;;5044007;28;20434;-59
2021/05/09 04:03:26;;;;;;;5.57;4.20;;;13.60;66.50;;;;;;5014055;28;20128;-56
2021/05/09 04:05:53;;;;;;;6.20;4.75;;;13.60;66.30;;;;;;5018321;28;20036;-58
2021/05/09 04:08:20;;;;;;;7.10;4.30;;;13.60;66.10;;;;;;5022030;28;20122;-58
2021/05/09 04:10:45;;;;;;;4.97;4.22;;;13.70;66.10;;;;;;5015295;28;20022;-60
2021/05/09 04:13:11;;;;;;;5.70;4.25;;;13.70;66.00;;;;;;5022564;28;20034;-61
2021/05/09 04:15:37;;;;;;;6.40;4.47;;;13.80;65.80;;;;;;5015488;28;20070;-60
2021/05/09 04:18:02;;;;;;;5.43;3.90;;;13.90;65.60;;;;;;5012514;28;20544;-60
2021/05/09 04:20:28;;;;;;;5.15;3.80;;;13.90;65.50;;;;;;5047579;28;20058;-59
2021/05/09 04:23:26;;;;;;;6.10;4.57;;;13.90;65.40;;;;;;5014865;28;20034;-60
2021/05/09 04:25:52;;;;;;;5.13;4.55;;;14.00;65.30;;;;;;5011870;28;20068;-57
2021/05/09 04:28:19;;;;;;;5.05;4.30;;;13.90;65.70;;;;;;5011519;28;20040;-56
2021/05/09 04:30:45;;;;;;;5.10;3.90;;;13.80;65.80;;;;;;5033555;28;20231;-58
2021/05/09 04:33:11;;;;;;;6.18;4.10;;;13.80;65.80;;;;;;5028474;28;20109;-58
2021/05/09 04:35:39;;;;;;;5.95;4.40;;;13.90;65.70;;;;;;5028456;28;20041;-60
2021/05/09 04:38:05;;;;;;;6.53;4.38;;;13.90;65.30;;;;;;5011431;28;20056;-60
2021/05/09 04:40:31;;;;;;;5.55;4.15;;;13.90;65.20;;;;;;5029371;28;20440;-60
2021/05/09 04:43:09;;;;;;;4.22;3.70;;;13.80;65.70;;;;;;5011954;28;20081;-59
2021/05/09 04:45:35;;;;;;;5.57;3.92;;;13.70;65.80;;;;;;5030209;28;20125;-60
2021/05/09 04:48:04;;;;;;;6.60;4.53;;;13.70;65.80;;;;;;5011712;28;20483;-61
2021/05/09 04:50:30;;;;;;;5.82;4.35;;;13.80;65.50;;;;;;5029931;28;20033;-59
2021/05/09 04:52:56;;;;;;;4.57;4.00;;;13.90;65.60;;;;;;5012009;28;20030;-59
2021/05/09 04:55:21;;;;;;;4.75;4.25;;;13.90;65.60;;;;;;5030544;28;20192;-60
2021/05/09 04:57:47;;;;;;;9.68;7.50;;;14.00;66.10;;;;;;5016575;28;20504;-59
2021/05/09 05:00:14;;;;;;;6.65;5.40;;;14.00;65.30;;;;;;5036270;28;20104;-58
2021/05/09 05:02:42;;;;;;;5.70;4.50;;;14.10;65.00;;;;;;5023702;28;20061;-60
2021/05/09 05:05:09;;;;;;;5.50;4.47;;;14.10;65.00;;;;;;5034838;28;20060;-61
2021/05/09 05:07:34;;;;;;;5.78;4.60;;;14.10;65.00;;;;;;5029368;28;20065;-57
2021/05/09 05:10:00;;;;;;;4.78;3.97;;;14.20;65.10;;;;;;5022551;28;20068;-58
2021/05/09 05:12:25;;;;;;;4.63;4.18;;;14.20;65.00;;;;;;5018947;28;20601;-60
2021/05/09 05:14:51;;;;;;;4.50;3.88;;;14.30;64.80;;;;;;5019521;28;20041;-59
2021/05/09 05:17:17;;;;;;;6.38;4.97;;;14.30;64.90;;;;;;5021865;28;20375;-58
2021/05/09 05:19:42;;;;;;;5.35;4.15;;;14.30;64.80;;;;;;5015804;28;20046;-57
2021/05/09 05:22:08;;;;;;;6.68;4.68;;;14.30;65.20;;;;;;5027184;28;20595;-59
2021/05/09 05:24:34;;;;;;;4.88;4.38;;;14.30;65.30;;;;;;5028821;28;20398;-60
2021/05/09 05:26:59;;;;;;;5.32;4.25;;;14.30;65.30;;;;;;5029378;28;20046;-62
2021/05/09 05:29:25;;;;;;;4.47;4.07;;;14.30;65.10;;;;;;5018733;28;20037;-60
2021/05/09 05:31:51;;;;;;;5.15;4.18;;;14.20;65.40;;;;;;5015684;28;20041;-59
2021/05/09 05:34:18;;;;;;;4.63;4.20;;;14.20;65.50;;;;;;5053202;28;20034;-58
2021/05/09 05:36:44;;;;;;;6.93;4.43;;;14.20;65.40;;;;;;5024330;28;20031;-58
2021/05/09 05:39:10;;;;;;;5.20;3.97;;;14.20;65.50;;;;;;5026434;28;20041;-61
2021/05/09 05:41:35;;;;;;;8.30;5.22;;;14.20;65.60;;;;;;5034472;28;20052;-61
2021/05/09 05:44:01;;;;;;;5.82;4.25;;;14.20;65.60;;;;;;5016319;28;20034;-59
2021/05/09 05:46:28;;;;;;;5.72;4.47;;;14.30;66.30;;;;;;5023158;28;20045;-61
2021/05/09 05:48:54;;;;;;;6.88;4.00;;;14.30;65.30;;;;;;5016136;28;20049;-58
2021/05/09 05:51:20;;;;;;;8.95;6.60;;;14.50;65.20;;;;;;5023495;28;20069;-59
2021/05/09 05:53:46;;;;;;;26.00;22.90;;;14.50;65.20;;;;;;5019792;28;20060;-58
2021/05/09 05:56:11;;;;;;;7.22;5.30;;;14.50;65.40;;;;;;5028671;28;20026;-58
2021/05/09 05:58:37;;;;;;;5.82;4.53;;;14.60;65.30;;;;;;5039066;28;20052;-60
2021/05/09 06:01:02;;;;;;;5.18;4.20;;;14.70;65.00;;;;;;5028408;28;20037;-61
2021/05/09 06:03:29;;;;;;;5.72;4.10;;;14.80;64.60;;;;;;5019816;28;20038;-61
2021/05/09 06:05:56;;;;;;;4.80;4.30;;;14.70;65.20;;;;;;5050546;28;20034;-60
2021/05/09 06:08:23;;;;;;;6.10;4.38;;;14.70;64.90;;;;;;5043585;28;20041;-60
2021/05/09 06:10:56;;;;;;;5.35;4.20;;;14.80;64.90;;;;;;5019279;28;20563;-62
2021/05/09 06:13:23;;;;;;;4.88;3.90;;;14.80;65.20;;;;;;5014777;28;20030;-61
2021/05/09 06:15:50;;;;;;;15.50;10.95;;;14.90;65.10;;;;;;5018428;28;20094;-61
2021/05/09 06:18:16;;;;;;;9.20;8.00;;;15.00;64.80;;;;;;5039457;28;20110;-61
2021/05/09 06:20:41;;;;;;;6.88;4.78;;;15.10;64.60;;;;;;5044859;28;20136;-60
2021/05/09 06:23:08;;;;;;;4.97;4.10;;;15.20;64.50;;;;;;5032653;28;20457;-57
2021/05/09 06:25:34;;;;;;;6.53;3.90;;;15.20;64.90;;;;;;5032824;28;20036;-60
2021/05/09 06:28:00;;;;;;;5.38;4.40;;;15.20;64.90;;;;;;5051112;28;20041;-60
2021/05/09 06:30:25;;;;;;;5.45;3.80;;;15.30;64.90;;;;;;5021865;28;20037;-58
2021/05/09 06:32:52;;;;;;;5.00;4.07;;;15.40;64.60;;;;;;5039622;28;20037;-61
2021/05/09 06:35:17;;;;;;;4.13;3.63;;;15.40;64.60;;;;;;5016210;28;20044;-61
2021/05/09 06:37:43;;;;;;;14.50;11.13;;;15.40;64.80;;;;;;5027531;28;20482;-61
2021/05/09 06:40:10;;;;;;;6.50;4.68;;;15.40;65.10;;;;;;5013063;28;20026;-60
2021/05/09 06:42:35;;;;;;;4.28;3.83;;;15.40;64.80;;;;;;5030986;28;20030;-62
2021/05/09 06:45:07;;;;;;;4.93;4.40;;;15.50;64.80;;;;;;5015816;28;20398;-62
2021/05/09 06:47:32;;;;;;;4.68;4.22;;;15.60;65.10;;;;;;5023118;28;20437;-60
2021/05/09 06:49:58;;;;;;;14.35;12.90;;;15.60;65.00;;;;;;5028694;28;20071;-59
2021/05/09 06:52:24;;;;;;;9.60;5.15;;;15.80;65.00;;;;;;5026151;28;20034;-61
2021/05/09 06:54:50;;;;;;;6.25;5.30;;;15.80;64.90;;;;;;5013225;28;20401;-60
2021/05/09 06:57:16;;;;;;;4.82;3.95;;;15.90;64.70;;;;;;5041139;28;20029;-60
2021/05/09 06:59:42;;;;;;;8.23;4.00;;;16.10;64.30;;;;;;5022805;28;20101;-59
2021/05/09 07:02:08;;;;;;;5.72;3.80;;;16.20;64.10;;;;;;5027004;28;20452;-60
2021/05/09 07:04:33;;;;;;;3.85;3.42;;;16.30;64.00;;;;;;5012801;28;20101;-60
2021/05/09 07:06:59;;;;;;;3.95;3.50;;;16.40;63.40;;;;;;5041044;28;20048;-57
2021/05/09 07:09:24;;;;;;;5.97;4.15;;;16.50;63.40;;;;;;5012992;28;20042;-59
2021/05/09 07:11:50;;;;;;;3.90;3.50;;;16.50;63.30;;;;;;5031356;28;20033;-59
2021/05/09 07:14:15;;;;;;;4.35;3.92;;;16.70;63.20;;;;;;5011990;28;20112;-59
2021/05/09 07:16:41;;;;;;;4.97;3.65;;;16.80;63.40;;;;;;5023266;28;20489;-60
2021/05/09 07:19:08;;;;;;;5.03;3.50;;;16.70;63.80;;;;;;5015826;28;20428;-58
2021/05/09 07:21:44;;;;;;;16.65;10.75;;;16.80;63.20;;;;;;5016627;28;20032;-58
2021/05/09 07:24:10;;;;;;;4.82;3.90;;;16.90;63.40;;;;;;5021580;28;20040;-60
2021/05/09 07:26:36;;;;;;;4.90;3.50;;;17.10;63.00;;;;;;5020619;28;20041;-56
2021/05/09 07:29:02;;;;;;;5.15;3.08;;;17.30;62.20;;;;;;5014843;28;20449;-60
2021/05/09 07:31:28;;;;;;;6.93;3.28;;;17.40;61.70;;;;;;5014690;28;20022;-61
2021/05/09 07:33:54;;;;;;;18.15;12.43;;;17.40;61.50;;;;;;5023385;28;20391;-59
2021/05/09 07:36:19;;;;;;;7.00;3.97;;;17.50;61.40;;;;;;5014492;28;20041;-61
2021/05/09 07:38:45;;;;;;;11.68;10.48;;;17.60;60.60;;;;;;5013092;28;20045;-61
2021/05/09 07:41:10;;;;;;;5.00;3.50;;;17.60;60.70;;;;;;5015266;28;20575;-61
2021/05/09 07:43:36;;;;;;;4.00;3.15;;;17.60;60.60;;;;;;5017504;28;20493;-59
2021/05/09 07:46:01;;;;;;;6.05;3.50;;;17.60;60.60;;;;;;5014853;28;20513;-58
2021/05/09 07:48:27;;;;;;;4.40;3.42;;;17.70;60.90;;;;;;5016236;28;20108;-60
2021/05/09 07:50:55;;;;;;;4.90;3.50;;;17.80;60.90;;;;;;5020074;28;20080;-63
2021/05/09 07:53:21;;;;;;;5.07;3.40;;;17.90;60.60;;;;;;5020362;28;20071;-60
2021/05/09 07:55:47;;;;;;;7.55;3.92;;;18.00;60.20;;;;;;5028318;28;20026;-63
2021/05/09 07:58:16;;;;;;;5.28;3.47;;;18.00;59.90;;;;;;5031119;28;20539;-60
2021/05/09 08:00:42;;;;;;;5.20;3.40;;;18.00;60.10;;;;;;5012841;28;20152;-57
2021/05/09 08:03:08;;;;;;;5.00;4.00;;;18.00;60.20;;;;;;5011678;28;20042;-61
2021/05/09 08:05:34;;;;;;;9.07;5.55;;;18.10;60.50;;;;;;5016096;28;20486;-61
2021/05/09 08:07:59;;;;;;;6.45;4.13;;;18.30;60.20;;;;;;5017279;28;20087;-61
2021/05/09 08:10:26;;;;;;;5.38;3.47;;;18.40;59.90;;;;;;5013042;28;20045;-60
2021/05/09 08:12:54;;;;;;;4.53;4.07;;;18.50;60.00;;;;;;5030328;28;20048;-61
2021/05/09 08:15:23;;;;;;;10.93;9.50;;;18.50;59.60;;;;;;5032906;28;20124;-61
2021/05/09 08:17:52;;;;;;;4.75;3.97;;;18.50;59.70;;;;;;5031676;28;20057;-61
2021/05/09 08:20:18;;;;;;;4.75;3.67;;;18.60;60.10;;;;;;5030367;28;20025;-60
2021/05/09 08:22:44;;;;;;;3.95;2.80;;;18.60;60.00;;;;;;5030806;28;20059;-59
2021/05/09 08:25:10;;;;;;;3.45;3.05;;;18.80;60.40;;;;;;5033244;28;20041;-58
2021/05/09 08:27:36;;;;;;;4.53;3.05;;;18.80;60.10;;;;;;5029362;28;20053;-62
2021/05/09 08:30:04;;;;;;;4.82;3.42;;;18.80;60.10;;;;;;5029856;28;20076;-60
2021/05/09 08:32:29;;;;;;;5.15;3.20;;;19.00;60.00;;;;;;5030586;28;20099;-61
2021/05/09 08:34:57;;;;;;;5.38;3.08;;;18.90;60.00;;;;;;5029355;28;20038;-59
2021/05/09 08:37:22;;;;;;;3.92;2.88;;;19.10;60.30;;;;;;5032848;28;20087;-59
2021/05/09 08:39:48;;;;;;;4.10;3.30;;;19.20;59.30;;;;;;5033413;28;20428;-62
2021/05/09 08:42:15;;;;;;;7.00;6.28;;;19.20;59.90;;;;;;5037550;28;20435;-59
2021/05/09 08:44:40;;;;;;;4.47;3.15;;;19.50;59.90;;;;;;5034770;28;20029;-60
2021/05/09 08:47:08;;;;;;;3.92;3.20;;;19.50;58.20;;;;;;5029864;28;20167;-59
2021/05/09 08:49:41;;;;;;;3.47;2.85;;;19.50;59.00;;;;;;5033285;28;20053;-61
2021/05/09 08:52:07;;;;;;;3.42;3.05;;;19.50;58.30;;;;;;5040672;28;20033;-61
2021/05/09 08:54:34;;;;;;;5.38;3.10;;;19.40;58.80;;;;;;5020269;28;20042;-60
2021/05/09 08:57:02;;;;;;;4.68;3.08;;;19.50;59.00;;;;;;5022246;28;20057;-59
2021/05/09 08:59:28;;;;;;;3.25;2.88;;;19.70;58.70;;;;;;5029664;28;20049;-58
2021/05/09 09:01:54;;;;;;;3.40;3.10;;;19.80;58.70;;;;;;5022369;28;20040;-59
2021/05/09 09:04:20;;;;;;;7.15;4.85;;;19.90;57.70;;;;;;5015135;28;20048;-62
2021/05/09 09:06:46;;;;;;;5.53;4.07;;;20.00;58.50;;;;;;5019966;28;20033;-59
2021/05/09 09:09:28;;;;;;;3.95;3.13;;;20.10;58.00;;;;;;5026637;28;20037;-60
2021/05/09 09:12:00;;;;;;;3.10;2.80;;;20.10;58.50;;;;;;5041756;28;20560;-61
2021/05/09 09:14:27;;;;;;;3.78;2.83;;;20.10;57.60;;;;;;5043904;28;20449;-59
2021/05/09 09:17:13;;;;;;;3.63;2.75;;;20.10;58.20;;;;;;5031426;28;20026;-61
2021/05/09 09:20:12;;;;;;;2.97;2.67;;;20.30;57.60;;;;;;5018928;28;20038;-60
2021/05/09 09:22:53;;;;;;;5.97;2.90;;;20.40;57.70;;;;;;5020834;28;20066;-58
2021/05/09 09:25:21;;;;;;;3.17;2.88;;;20.60;57.80;;;;;;5033127;28;20025;-61
2021/05/09 09:27:47;;;;;;;5.47;2.97;;;20.70;56.60;;;;;;5034906;28;20032;-60
2021/05/09 09:30:15;;;;;;;4.13;2.70;;;20.70;57.10;;;;;;5016471;28;20076;-60
2021/05/09 09:32:41;;;;;;;4.57;3.15;;;20.70;56.80;;;;;;5030726;28;20072;-61
2021/05/09 09:35:27;;;;;;;3.25;2.60;;;20.80;56.90;;;;;;5014086;28;20036;-61
2021/05/09 09:37:52;;;;;;;6.53;3.00;;;20.90;56.40;;;;;;5039309;28;20056;-58
2021/05/09 09:40:18;;;;;;;3.92;2.83;;;21.10;57.00;;;;;;5033257;28;20500;-60
2021/05/09 09:42:48;;;;;;;4.65;2.83;;;20.90;56.20;;;;;;5048417;28;20038;-61
2021/05/09 09:45:25;;;;;;;3.35;2.78;;;20.90;57.30;;;;;;5021974;28;20034;-58
2021/05/09 09:47:55;;;;;;;3.65;2.95;;;21.00;57.30;;;;;;5021722;28;20030;-59
2021/05/09 09:50:49;;;;;;;3.35;2.95;;;21.10;56.10;;;;;;5013084;28;20026;-60
2021/05/09 09:53:33;;;;;;;4.07;2.97;;;21.10;56.40;;;;;;5056480;28;20048;-60
2021/05/09 09:56:16;;;;;;;3.53;2.80;;;21.20;56.10;;;;;;5026474;28;20033;-61
2021/05/09 09:59:04;;;;;;;3.10;2.73;;;21.30;56.10;;;;;;5037236;28;20038;-61
2021/05/09 10:01:35;;;;;;;3.17;2.53;;;21.50;56.20;;;;;;5030402;28;20511;-57
2021/05/09 10:04:06;;;;;;;5.13;3.00;;;21.50;56.20;;;;;;5036818;28;20029;-66
2021/05/09 10:06:32;;;;;;;6.93;4.72;;;21.80;56.60;;;;;;5031679;28;20037;-65
2021/05/09 10:08:58;;;;;;;5.88;4.55;;;21.80;56.70;;;;;;5033410;28;20385;-56
2021/05/09 10:11:25;;;;;;;4.25;3.85;;;21.80;56.50;;;;;;5031716;28;20123;-61
2021/05/09 10:13:52;;;;;;;6.72;5.25;;;21.90;56.00;;;;;;5023562;28;20045;-57
2021/05/09 10:16:40;;;;;;;4.95;3.83;;;22.10;55.50;;;;;;5019869;28;20097;-62
2021/05/09 10:19:10;;;;;;;4.45;4.03;;;22.00;55.20;;;;;;5032923;28;20552;-60
2021/05/09 10:21:39;;;;;;;7.70;3.38;;;21.90;54.80;;;;;;5022784;28;20060;-57
2021/05/09 10:24:18;;;;;;;5.25;4.50;;;21.80;54.90;;;;;;5031252;28;20041;-59
2021/05/09 10:26:43;;;;;;;3.40;3.10;;;22.00;56.00;;;;;;5014237;28;20564;-54
2021/05/09 10:29:29;;;;;;;4.47;2.90;;;22.00;54.60;;;;;;5018357;28;20124;-55
2021/05/09 10:31:54;;;;;;;5.55;3.00;;;22.10;54.60;;;;;;5028604;28;20036;-58
2021/05/09 10:34:52;;;;;;;4.47;2.80;;;22.10;55.00;;;;;;5036605;28;20034;-59
2021/05/09 10:37:37;;;;;;;3.95;2.67;;;22.30;54.50;;;;;;5020455;28;20026;-57
2021/05/09 10:40:26;;;;;;;3.50;3.00;;;22.40;54.50;;;;;;5024547;28;20080;-54
2021/05/09 10:43:01;;;;;;;3.38;2.67;;;22.50;54.50;;;;;;5014471;28;20104;-58
2021/05/09 10:45:36;;;;;;;2.80;2.50;;;22.60;54.40;;;;;;5026962;28;20068;-59
2021/05/09 10:48:18;;;;;;;4.00;3.20;;;22.70;54.90;;;;;;5013077;28;20037;-53
2021/05/09 10:51:14;;;;;;;3.15;2.58;;;22.90;54.40;;;;;;5018124;28;20115;-59
2021/05/09 10:53:41;;;;;;;2.90;2.60;;;23.00;53.80;;;;;;5015314;28;20438;-56
2021/05/09 10:56:14;;;;;;;3.28;2.88;;;23.10;53.80;;;;;;5026615;28;20060;-58
2021/05/09 10:58:39;;;;;;;3.08;2.70;;;23.00;54.00;;;;;;5023856;28;20041;-56
2021/05/09 11:01:08;;;;;;;4.13;2.90;;;23.00;54.40;;;;;;5028169;28;20032;-57
2021/05/09 11:03:36;;;;;;;4.82;2.72;;;23.00;54.50;;;;;;5029307;28;20505;-56
2021/05/09 11:06:03;;;;;;;3.33;3.03;;;23.10;54.40;;;;;;5030707;28;20409;-57
2021/05/09 11:08:48;;;;;;;3.85;2.85;;;23.10;54.10;;;;;;5016005;28;20093;-60
2021/05/09 11:11:14;;;;;;;4.53;2.70;;;23.20;54.70;;;;;;5047964;28;20041;-59
2021/05/09 11:14:01;;;;;;;3.67;3.00;;;23.20;54.50;;;;;;5018612;28;20060;-60
2021/05/09 11:16:30;;;;;;;3.10;2.67;;;23.30;54.60;;;;;;5015900;28;20033;-61
2021/05/09 11:19:04;;;;;;;5.22;2.92;;;23.30;54.90;;;;;;5012887;28;20052;-59
2021/05/09 11:21:31;;;;;;;;;;;23.50;54.10;;;;;;5031339;28;20049;-59
2021/05/09 11:24:00;;;;;;;4.90;3.83;;;23.50;54.60;;;;;;5031467;28;20361;-59
2021/05/09 11:26:28;;;;;;;3.90;3.15;;;23.60;54.00;;;;;;5035701;28;20397;-58
2021/05/09 11:29:12;;;;;;;5.68;3.60;;;23.80;53.90;;;;;;5021627;28;20501;-61
2021/05/09 11:31:40;;;;;;;4.18;3.40;;;23.80;54.40;;;;;;5033334;28;20038;-58
2021/05/09 11:34:06;;;;;;;5.10;2.92;;;23.90;54.20;;;;;;5029184;28;20033;-57
2021/05/09 11:36:33;;;;;;;3.72;2.95;;;23.90;53.80;;;;;;5016644;28;20034;-60
2021/05/09 11:39:20;;;;;;;5.50;3.00;;;24.00;53.70;;;;;;5018453;28;20045;-60
2021/05/09 11:41:56;;;;;;;6.57;3.40;;;24.10;53.60;;;;;;5013612;28;20385;-61
2021/05/09 11:44:27;;;;;;;3.78;3.10;;;24.10;53.50;;;;;;5032586;28;20057;-61
2021/05/09 11:46:53;;;;;;;4.85;3.03;;;24.20;53.50;;;;;;5034580;28;20034;-59
2021/05/09 11:49:26;;;;;;;3.45;3.00;;;24.20;53.50;;;;;;5035350;28;20493;-61
2021/05/09 11:52:00;;;;;;;4.50;3.90;;;24.30;54.30;;;;;;5040656;28;20034;-56
2021/05/09 11:54:28;;;;;;;8.43;5.60;;;24.40;53.50;;;;;;5024633;28;20029;-62
2021/05/09 11:56:56;;;;;;;7.13;3.30;;;24.50;53.40;;;;;;5021875;28;20574;-60
2021/05/09 11:59:44;;;;;;;5.85;3.60;;;24.50;53.10;;;;;;5025734;28;20048;-61
2021/05/09 12:02:16;;;;;;;3.92;3.00;;;24.70;53.10;;;;;;5028539;28;20049;-61
2021/05/09 12:04:42;;;;;;;3.80;2.83;;;24.80;52.80;;;;;;5026660;28;20034;-59
2021/05/09 12:07:13;;;;;;;5.85;3.40;;;24.90;52.80;;;;;;5027347;28;20038;-58
2021/05/09 12:09:39;;;;;;;6.10;3.40;;;24.90;52.70;;;;;;5012376;28;20208;-60
2021/05/09 12:12:06;;;;;;;4.38;3.10;;;24.80;53.00;;;;;;5044835;28;20036;-61
2021/05/09 12:14:31;;;;;;;3.30;3.00;;;24.80;52.40;;;;;;5014957;28;20097;-59
2021/05/09 12:16:57;;;;;;;3.63;3.10;;;24.80;52.90;;;;;;5035240;28;20112;-60
2021/05/09 12:19:33;;;;;;;5.78;3.15;;;25.00;53.00;;;;;;5035540;28;20041;-60
2021/05/09 12:22:04;;;;;;;5.60;3.63;;;25.30;52.10;;;;;;5027101;28;20045;-59
2021/05/09 12:24:44;;;;;;;6.22;3.20;;;25.40;51.40;;;;;;5049987;28;20489;-59
2021/05/09 12:27:12;;;;;;;4.18;2.90;;;25.50;51.30;;;;;;5031076;28;20056;-59
2021/05/09 12:29:49;;;;;;;3.33;2.88;;;25.60;50.80;;;;;;5020391;28;20131;-57
2021/05/09 12:32:24;;;;;;;5.38;3.20;;;25.50;50.70;;;;;;5056400;28;20030;-60
2021/05/09 12:35:06;;;;;;;4.95;3.30;;;25.60;51.20;;;;;;5030931;28;20025;-59
2021/05/09 12:37:33;;;;;;;10.10;7.13;;;25.90;50.70;;;;;;5021167;28;20117;-61
2021/05/09 12:40:21;;;;;;;4.18;3.17;;;26.00;50.20;;;;;;5046710;28;20034;-61
2021/05/09 12:43:05;;;;;;;5.38;3.00;;;26.10;50.30;;;;;;5025975;28;20067;-61
2021/05/09 12:45:39;;;;;;;4.30;3.20;;;26.20;49.90;;;;;;5015410;28;20110;-60
2021/05/09 12:48:40;;;;;;;20.65;6.10;;;26.20;49.60;;;;;;5051221;28;20065;-61
2021/05/09 12:51:14;;;;;;;4.97;2.75;;;26.30;49.40;;;;;;5018439;28;20045;-62
2021/05/09 12:53:47;;;;;;;8.65;3.78;;;26.40;50.50;;;;;;5015011;28;20046;-62